Aérodrome :
LOGIN :

S'inscrire | Disclaimer

   EN    FR    IT 

 










Légende :    VFR   VFR Marginal   IFR   IFR Intensif   IFR Très Intensif
Visi : 
Plafond : 
>= 8 km
>= 3000ft
5 à 8 km
1000 à 3000 ft
1500m à 5 km
500 à 1000 ft
800 à 1500m
200 à 500 ft
< 800m
< 200 ft
Symboles :   Orages  Brouillard  Fortes neiges  Fortes précipitations  Vent > 20 kt
SIGMETs :   Divers  Orages  Givrage  Turbulence  Onde Orograph.  Cendres Volcan.







- Altitude de l'aérodrome : 1475 ft


LSZC - Buochs Stans

DERNIER METAR :
  • 220550Z AUTO 10004KT 030V180 9999 BKN080 06/05 Q1019

METARs EXPIRÉS :
  • 220520Z AUTO 31005KT 260V350 9999 BKN080 SCT100 06/05 Q1019
  • 220450Z AUTO VRB04KT 9999 OVC047 06/06 Q1019
  • 220420Z AUTO 06004KT 030V180 9999 OVC048 06/06 Q1019
  • 220350Z AUTO 34004KT 230V040 9999 OVC047 06/06 Q1019
  • 220320Z AUTO VRB04KT 9999 BKN120 05/05 Q1019

TAF TAF LSZC
Valide du 22 à 06h jusqu'au 22 à 15h UTC


220525Z 2206/2215 VRB03KT 9999 OVC045
PROB40 2210/2215 CAVOK
Pas de NOTAMs connus pour ce terrain.



MET'MAP, la Météo Aéronautique d'un coup d'oeil ! - Copyright ORBIFLY Décembre 2007 - Disclaimer

ORBIFLY MET'MAP TEAM :

Programmation & Développement : Alexandra Zaïnal
Conception & Développement : Baudouin d'Aumeries
Co-Programmation & Développement : Marc-Olivier Méhu
Soutien technique & logistique : Manuel Goepfert

Contact : metmap@orbifly.com




SOURCES & CREDITS :

   NOAA